Terminal Aerodrome Forecast
Issued by NWS Brownsville, TX

Home | Current Version | Previous Version | Text Only | Print | Product List | Glossary On
Versions: 1 2 3 4 5 6 7 8 9 10 11 12 13 14 15
000
FTUS44 KBRO 202300
TAFHRL
TAF
KHRL 202333Z 2100/2124 15008KT P6SM BKN025 OVC040
     FM211200 15015KT P6SM OVC050
     FM211500 15020G25KT P6SM OVC050=

USA.gov is the U.S. government's official web portal to all federal, state and local government web resources and services.